Hayti, Missouri
Current Conditions -  °F | °C
As of 2:53 AM on Sunday 21 Dec 2014 (Local Time) from KHKA Reporting Station
Clear Clear  
Wind Chill: 26°   Ceiling: Unl
Heat Index: 31°   Visibility: 9mi
Dew Point: 29°   Wind: 5mph
Humidity: 92%   Direction: 80°E
Pressure: 30.25"   Gusts: NA
Location:  36.23°N, 89.75°W
Report Text: KHKA 210853Z AUTO 08004KT 9SM CLR M01/M02 A3025 RMK AO2 SLP244 T10061017 58005
Loading
Personal Weather Stations






























Interactive Weather Map New forecast layout! Learn more

10-Day Weather Forecast

Advertisements
Track Severe Weather on mobile